Time;durP1;ratioP1;P1;durP2;ratioP2;P2;SDS_P1;SDS_P2;PMS_P1;PMS_P2;Temp;Humidity;BMP_temperature;BMP_pressure;BME280_temperature;BME280_humidity;BME280_pressure;Samples;Min_cycle;Max_cycle;Signal;HPM_P1;HPM_P2
2022/07/29 00:01:58;;;;;;;0.70;0.70;;;21.60;62.30;;;;;;6243471;22;43416;-61
2022/07/29 00:04:25;;;;;;;0.65;0.60;;;21.60;62.30;;;;;;6243299;22;43565;-62
2022/07/29 00:06:53;;;;;;;0.50;0.50;;;21.60;62.30;;;;;;6242916;22;44062;-61
2022/07/29 00:09:21;;;;;;;0.60;0.60;;;21.60;62.30;;;;;;6243135;22;43970;-60
2022/07/29 00:11:48;;;;;;;0.60;0.60;;;21.60;62.30;;;;;;6242722;22;43396;-61
2022/07/29 00:14:16;;;;;;;0.50;0.50;;;21.60;62.30;;;;;;6243557;22;43535;-61
2022/07/29 00:16:44;;;;;;;0.70;0.63;;;21.60;62.30;;;;;;6243050;22;43651;-61
2022/07/29 00:19:11;;;;;;;0.75;0.70;;;21.60;62.30;;;;;;6242528;22;43688;-61
2022/07/29 00:21:39;;;;;;;0.65;0.65;;;21.60;62.30;;;;;;6243390;22;43422;-61
2022/07/29 00:24:07;;;;;;;1.00;0.90;;;21.50;62.30;;;;;;6243719;22;43405;-61
2022/07/29 00:26:34;;;;;;;0.70;0.70;;;21.50;62.30;;;;;;6242397;22;44658;-61
2022/07/29 00:29:03;;;;;;;0.60;0.55;;;21.60;62.40;;;;;;6216531;22;43928;-61
2022/07/29 00:31:51;;;;;;;0.65;0.60;;;21.50;62.40;;;;;;6242909;22;43391;-61
2022/07/29 00:37:04;;;;;;;0.60;0.60;;;21.50;62.40;;;;;;6243284;22;44742;-61
2022/07/29 00:39:34;;;;;;;0.65;0.65;;;21.50;62.40;;;;;;6243071;22;43423;-61
2022/07/29 00:42:05;;;;;;;0.57;0.57;;;21.50;62.40;;;;;;6242918;22;43483;-61
2022/07/29 00:44:36;;;;;;;;;;;21.50;62.40;;;;;;6244199;22;43465;-61
2022/07/29 00:47:03;;;;;;;0.75;0.68;;;21.50;62.40;;;;;;6242815;22;43749;-61
2022/07/29 00:49:31;;;;;;;0.60;0.60;;;21.40;62.40;;;;;;6243005;22;43514;-61
2022/07/29 00:52:04;;;;;;;0.60;0.60;;;21.40;62.40;;;;;;6243271;22;43456;-61
2022/07/29 00:54:33;;;;;;;0.77;0.70;;;21.40;62.40;;;;;;6242669;22;43495;-61
2022/07/29 00:57:01;;;;;;;0.63;0.63;;;21.50;62.50;;;;;;6243447;22;44655;-61
2022/07/29 00:59:29;;;;;;;0.60;0.60;;;21.40;62.40;;;;;;6242968;22;43425;-61
2022/07/29 01:02:03;;;;;;;1.10;0.80;;;21.40;62.50;;;;;;6242904;22;43420;-61
2022/07/29 01:04:31;;;;;;;0.68;0.60;;;21.40;62.40;;;;;;6243040;22;43570;-61
2022/07/29 01:07:01;;;;;;;0.73;0.73;;;21.40;62.50;;;;;;6243462;22;44932;-62
2022/07/29 01:09:29;;;;;;;0.60;0.60;;;21.40;62.50;;;;;;6215095;22;43775;-61
2022/07/29 01:12:17;;;;;;;0.70;0.70;;;21.40;62.50;;;;;;6243074;22;43351;-61
2022/07/29 01:14:46;;;;;;;0.60;0.60;;;21.40;62.50;;;;;;6243194;22;43413;-61
2022/07/29 01:17:20;;;;;;;0.70;0.70;;;21.40;62.50;;;;;;6242266;22;43764;-61
2022/07/29 01:20:03;;;;;;;0.60;0.60;;;21.40;62.50;;;;;;6243207;22;43911;-61
2022/07/29 01:23:01;;;;;;;1.13;0.70;;;21.40;62.50;;;;;;6242232;22;43401;-61
2022/07/29 01:25:35;;;;;;;0.40;0.40;;;21.40;62.50;;;;;;6243146;22;43439;-61
2022/07/29 01:28:34;;;;;;;0.70;0.70;;;21.40;62.50;;;;;;6243184;22;44003;-61
2022/07/29 01:31:04;;;;;;;0.65;0.65;;;21.40;62.50;;;;;;6242242;22;44039;-61
2022/07/29 01:33:49;;;;;;;0.90;0.70;;;21.30;62.50;;;;;;6243327;22;43509;-62
2022/07/29 01:36:35;;;;;;;0.98;0.98;;;21.30;62.60;;;;;;6242672;22;43371;-62
2022/07/29 01:39:16;;;;;;;0.52;0.52;;;21.40;62.60;;;;;;6242995;22;43778;-61
2022/07/29 01:41:49;;;;;;;;;;;21.40;62.60;;;;;;6242780;22;43411;-62
2022/07/29 01:44:27;;;;;;;0.70;0.70;;;21.30;62.60;;;;;;6242834;22;43375;-61
2022/07/29 01:46:58;;;;;;;0.50;0.50;;;21.30;62.70;;;;;;6243593;22;43367;-61
2022/07/29 01:49:33;;;;;;;0.95;0.70;;;21.30;62.70;;;;;;6242733;22;43911;-61
2022/07/29 01:52:10;;;;;;;0.70;0.70;;;21.30;62.60;;;;;;6242445;22;43943;-61
2022/07/29 01:54:45;;;;;;;1.10;0.80;;;21.30;62.60;;;;;;6243090;22;43392;-61
2022/07/29 01:57:17;;;;;;;0.80;0.80;;;21.30;62.60;;;;;;6242895;22;43388;-61
2022/07/29 01:59:48;;;;;;;0.65;0.65;;;21.30;62.70;;;;;;6243123;22;44795;-61
2022/07/29 02:02:18;;;;;;;0.68;0.68;;;21.30;62.60;;;;;;6242519;22;43940;-61
2022/07/29 02:04:48;;;;;;;0.63;0.55;;;21.30;62.60;;;;;;6242024;22;43359;-62
2022/07/29 02:07:19;;;;;;;0.60;0.60;;;21.30;62.60;;;;;;6216446;22;43522;-62
2022/07/29 02:09:49;;;;;;;0.70;0.70;;;21.30;62.70;;;;;;6243030;22;44019;-61
2022/07/29 02:12:19;;;;;;;0.60;0.60;;;21.30;62.70;;;;;;6241945;22;43676;-61
2022/07/29 02:14:51;;;;;;;0.52;0.52;;;21.30;62.70;;;;;;6242524;22;43483;-62
2022/07/29 02:17:27;;;;;;;0.50;0.50;;;21.30;62.70;;;;;;6243435;22;43367;-61
2022/07/29 02:19:59;;;;;;;0.50;0.50;;;21.30;62.70;;;;;;6242400;22;43767;-61
2022/07/29 02:22:30;;;;;;;0.63;0.63;;;21.30;62.70;;;;;;6242806;22;44731;-61
2022/07/29 02:24:58;;;;;;;0.60;0.60;;;21.30;63.30;;;;;;6243451;22;43396;-62
2022/07/29 02:27:28;;;;;;;0.80;0.80;;;21.30;62.70;;;;;;6241931;22;43579;-61
2022/07/29 02:30:00;;;;;;;0.70;0.70;;;21.30;62.70;;;;;;6242773;22;44822;-62
2022/07/29 02:32:29;;;;;;;0.70;0.70;;;21.20;62.70;;;;;;6242037;22;43660;-61
2022/07/29 02:34:58;;;;;;;0.60;0.60;;;21.30;62.70;;;;;;6243143;22;43398;-61
2022/07/29 02:37:27;;;;;;;0.70;0.70;;;21.20;62.70;;;;;;6242304;22;43426;-61
2022/07/29 02:39:57;;;;;;;0.60;0.60;;;21.30;62.70;;;;;;6241936;22;44654;-62
2022/07/29 02:42:27;;;;;;;0.70;0.70;;;21.20;62.70;;;;;;6242019;22;43439;-61
2022/07/29 02:44:55;;;;;;;0.70;0.70;;;21.20;63.40;;;;;;6243557;22;43427;-61
2022/07/29 02:47:47;;;;;;;0.80;0.80;;;21.30;62.70;;;;;;6241936;22;43416;-61
2022/07/29 02:50:24;;;;;;;0.68;0.68;;;21.30;62.80;;;;;;6242227;22;45006;-62
2022/07/29 02:53:00;;;;;;;0.47;0.47;;;21.30;62.80;;;;;;6242836;22;43376;-61
2022/07/29 02:55:36;;;;;;;0.90;0.90;;;21.20;62.70;;;;;;6242197;22;43467;-61
2022/07/29 02:58:12;;;;;;;0.80;0.80;;;21.20;62.70;;;;;;6243090;22;43546;-62
2022/07/29 03:00:41;;;;;;;0.75;0.60;;;21.20;62.70;;;;;;6241628;22;43857;-62
2022/07/29 03:03:13;;;;;;;0.45;0.45;;;21.20;62.70;;;;;;6242316;22;43449;-61
2022/07/29 03:05:41;;;;;;;0.70;0.70;;;21.20;62.70;;;;;;6242881;22;43424;-61
2022/07/29 03:08:11;;;;;;;0.70;0.70;;;21.20;62.70;;;;;;6241875;22;43564;-62
2022/07/29 03:10:45;;;;;;;0.60;0.60;;;21.20;62.70;;;;;;6242039;22;44667;-61
2022/07/29 03:13:13;;;;;;;0.60;0.60;;;21.20;62.70;;;;;;6242672;22;43925;-61
2022/07/29 03:15:43;;;;;;;0.60;0.60;;;21.20;62.70;;;;;;6241235;22;43471;-61
2022/07/29 03:18:12;;;;;;;0.90;0.90;;;21.20;62.70;;;;;;6242962;22;43417;-62
2022/07/29 03:20:40;;;;;;;0.70;0.70;;;21.20;62.80;;;;;;6241937;22;43754;-61
2022/07/29 03:23:08;;;;;;;0.60;0.60;;;21.20;62.70;;;;;;6242363;22;43379;-61
2022/07/29 03:25:36;;;;;;;0.82;0.70;;;21.20;62.70;;;;;;6242300;22;43336;-61
2022/07/29 03:28:03;;;;;;;0.73;0.73;;;21.20;62.70;;;;;;6242368;22;43410;-61
2022/07/29 03:30:31;;;;;;;0.55;0.50;;;21.20;62.80;;;;;;6240631;22;43784;-61
2022/07/29 03:32:58;;;;;;;0.70;0.70;;;21.20;62.80;;;;;;6242717;22;43356;-62
2022/07/29 03:35:26;;;;;;;0.80;0.80;;;21.20;62.80;;;;;;6242315;22;43338;-61
2022/07/29 03:37:54;;;;;;;0.68;0.68;;;21.20;62.80;;;;;;6241764;22;43440;-61
2022/07/29 03:40:47;;;;;;;0.60;0.60;;;21.20;62.80;;;;;;6242038;22;44693;-61
2022/07/29 03:43:17;;;;;;;0.43;0.43;;;21.10;62.70;;;;;;6231251;22;44202;-61
2022/07/29 03:45:48;;;;;;;0.70;0.60;;;21.20;62.80;;;;;;6242201;22;43383;-61
2022/07/29 03:48:19;;;;;;;0.73;0.70;;;21.20;62.80;;;;;;6242503;22;43440;-61
2022/07/29 03:50:47;;;;;;;;;;;21.20;62.80;;;;;;6214863;22;43997;-61
2022/07/29 03:53:15;;;;;;;0.70;0.65;;;21.20;62.80;;;;;;6242149;22;43629;-61
2022/07/29 03:55:48;;;;;;;0.82;0.82;;;21.10;62.80;;;;;;6242012;22;43402;-62
2022/07/29 03:58:18;;;;;;;0.70;0.70;;;21.10;62.80;;;;;;6241515;22;43391;-61
2022/07/29 04:00:46;;;;;;;0.70;0.70;;;21.10;62.80;;;;;;6240290;22;43935;-62
2022/07/29 04:03:15;;;;;;;0.65;0.65;;;21.10;62.80;;;;;;6240620;22;43403;-61
2022/07/29 04:05:43;;;;;;;0.65;0.65;;;21.10;62.80;;;;;;6241265;22;43364;-61
2022/07/29 04:08:10;;;;;;;0.60;0.60;;;21.10;62.80;;;;;;6241903;22;43415;-62
2022/07/29 04:10:38;;;;;;;0.65;0.65;;;21.10;62.80;;;;;;6241396;22;43749;-61
2022/07/29 04:13:06;;;;;;;0.75;0.75;;;21.10;62.80;;;;;;6214484;22;43729;-61
2022/07/29 04:15:33;;;;;;;0.80;0.80;;;21.10;62.80;;;;;;6242089;22;43383;-62
2022/07/29 04:18:01;;;;;;;0.82;0.82;;;21.10;62.80;;;;;;6241586;22;43465;-62
2022/07/29 04:20:28;;;;;;;0.90;0.70;;;21.10;62.80;;;;;;6241295;22;45280;-61
2022/07/29 04:22:56;;;;;;;0.70;0.70;;;21.10;62.80;;;;;;6241978;22;43976;-61
2022/07/29 04:25:23;;;;;;;0.68;0.68;;;21.10;62.80;;;;;;6241137;22;43981;-61
2022/07/29 04:28:02;;;;;;;0.60;0.60;;;21.10;62.80;;;;;;6243139;22;43411;-62
2022/07/29 04:30:31;;;;;;;0.73;0.73;;;21.10;62.80;;;;;;6242703;22;44726;-61
2022/07/29 04:33:00;;;;;;;0.70;0.70;;;21.10;62.80;;;;;;6242977;22;43952;-62
2022/07/29 04:35:29;;;;;;;0.60;0.60;;;21.10;62.80;;;;;;6243373;22;43421;-62
2022/07/29 04:38:06;;;;;;;1.25;1.00;;;21.10;62.80;;;;;;6243688;22;43936;-62
2022/07/29 04:40:41;;;;;;;0.60;0.60;;;21.10;62.90;;;;;;6242423;22;44026;-61
2022/07/29 04:43:09;;;;;;;0.70;0.70;;;21.10;62.90;;;;;;6243495;22;43494;-61
2022/07/29 04:45:38;;;;;;;0.70;0.70;;;21.10;62.80;;;;;;6243291;22;43534;-61
2022/07/29 04:48:06;;;;;;;0.70;0.70;;;21.10;62.90;;;;;;6242409;22;43526;-61
2022/07/29 04:50:33;;;;;;;0.75;0.60;;;21.10;62.90;;;;;;6242470;22;44008;-61
2022/07/29 04:53:01;;;;;;;0.60;0.60;;;21.10;62.80;;;;;;6243739;22;43368;-61
2022/07/29 04:55:28;;;;;;;0.70;0.70;;;21.10;62.80;;;;;;6242766;22;43404;-61
2022/07/29 04:57:56;;;;;;;0.70;0.70;;;21.10;62.80;;;;;;6243672;22;43488;-61
2022/07/29 05:00:24;;;;;;;1.35;0.70;;;21.10;62.80;;;;;;6241985;22;44983;-61
2022/07/29 05:02:59;;;;;;;0.70;0.70;;;21.10;62.90;;;;;;6243603;22;43951;-61
2022/07/29 05:05:27;;;;;;;0.68;0.68;;;21.10;62.80;;;;;;6243369;22;43348;-61
2022/07/29 05:07:55;;;;;;;0.80;0.70;;;21.10;62.80;;;;;;6242885;22;43391;-62
2022/07/29 05:10:23;;;;;;;2.55;1.02;;;21.10;62.90;;;;;;6242802;22;44688;-61
2022/07/29 05:12:50;;;;;;;0.75;0.60;;;21.10;62.80;;;;;;6242899;22;43976;-61
2022/07/29 05:15:18;;;;;;;0.50;0.50;;;21.10;62.80;;;;;;6242672;22;43352;-61
2022/07/29 05:17:45;;;;;;;1.77;0.80;;;21.10;62.90;;;;;;6243199;22;43439;-61
2022/07/29 05:20:13;;;;;;;0.85;0.85;;;21.10;63.00;;;;;;6243101;22;45037;-61
2022/07/29 05:22:40;;;;;;;0.70;0.70;;;21.10;62.90;;;;;;6241938;22;43359;-61
2022/07/29 05:25:09;;;;;;;0.80;0.80;;;21.10;62.90;;;;;;6216122;22;43413;-61
2022/07/29 05:27:36;;;;;;;0.55;0.55;;;21.10;62.90;;;;;;6243078;22;43565;-62
2022/07/29 05:30:05;;;;;;;0.85;0.70;;;21.10;63.00;;;;;;6242067;22;44760;-61
2022/07/29 05:32:32;;;;;;;0.68;0.68;;;21.10;63.00;;;;;;6242872;22;43414;-62
2022/07/29 05:34:59;;;;;;;0.70;0.70;;;21.10;63.00;;;;;;6243640;22;43399;-62
2022/07/29 05:37:27;;;;;;;0.73;0.68;;;21.00;63.00;;;;;;6242103;22;43462;-62
2022/07/29 05:39:55;;;;;;;1.85;0.95;;;21.10;63.10;;;;;;6243271;22;44917;-62
2022/07/29 05:42:25;;;;;;;0.68;0.68;;;21.10;63.00;;;;;;6242001;22;44213;-62
2022/07/29 05:44:53;;;;;;;0.88;0.80;;;21.10;62.90;;;;;;6243660;22;43466;-61
2022/07/29 05:47:21;;;;;;;0.60;0.60;;;21.00;62.90;;;;;;6216466;22;43407;-61
2022/07/29 05:49:49;;;;;;;0.90;0.77;;;21.10;63.00;;;;;;6242342;22;44732;-62
2022/07/29 05:52:16;;;;;;;0.70;0.70;;;21.00;62.90;;;;;;6242878;22;44002;-61
2022/07/29 05:54:44;;;;;;;0.60;0.60;;;21.00;62.80;;;;;;6242879;22;43353;-62
2022/07/29 05:57:22;;;;;;;0.90;0.90;;;21.10;62.90;;;;;;6242090;22;43474;-62
2022/07/29 05:59:50;;;;;;;0.70;0.70;;;21.10;62.80;;;;;;6243064;22;43779;-61
2022/07/29 06:02:18;;;;;;;0.75;0.75;;;21.10;62.80;;;;;;6243312;22;43933;-62
2022/07/29 06:04:46;;;;;;;0.55;0.55;;;21.10;62.80;;;;;;6215552;22;43349;-62
2022/07/29 06:07:13;;;;;;;1.40;0.70;;;21.10;62.90;;;;;;6243158;22;43599;-62
2022/07/29 06:09:41;;;;;;;0.70;0.70;;;21.10;62.90;;;;;;6242800;22;44665;-62
2022/07/29 06:12:09;;;;;;;0.70;0.70;;;21.10;62.90;;;;;;6242171;22;43376;-62
2022/07/29 06:14:37;;;;;;;0.65;0.65;;;21.10;62.90;;;;;;6242671;22;43353;-62
2022/07/29 06:17:05;;;;;;;0.73;0.73;;;21.00;62.90;;;;;;6216598;22;43631;-61
2022/07/29 06:19:36;;;;;;;0.60;0.60;;;21.10;62.90;;;;;;6215085;22;43906;-61
2022/07/29 06:22:03;;;;;;;0.68;0.68;;;21.10;62.90;;;;;;6242919;22;43371;-61
2022/07/29 06:24:31;;;;;;;0.68;0.68;;;21.10;62.90;;;;;;6242047;22;43987;-61
2022/07/29 06:26:58;;;;;;;1.13;0.90;;;21.10;62.80;;;;;;6243069;22;43475;-62
2022/07/29 06:29:26;;;;;;;0.75;0.75;;;21.10;62.80;;;;;;6242641;22;43944;-62
2022/07/29 06:31:53;;;;;;;0.82;0.82;;;21.10;63.50;;;;;;6242542;22;43474;-62
2022/07/29 06:34:21;;;;;;;0.88;0.88;;;21.10;62.80;;;;;;6242879;22;43404;-62
2022/07/29 06:36:49;;;;;;;1.13;0.93;;;21.10;62.80;;;;;;6242861;22;43549;-62
2022/07/29 06:39:18;;;;;;;0.98;0.88;;;21.10;62.80;;;;;;6241824;22;43810;-62
2022/07/29 06:41:50;;;;;;;1.23;0.90;;;21.10;62.80;;;;;;6242702;22;43674;-62
2022/07/29 06:44:18;;;;;;;0.80;0.80;;;21.10;62.80;;;;;;6243496;22;43399;-62
2022/07/29 06:46:48;;;;;;;0.80;0.77;;;21.10;62.90;;;;;;6241937;22;43581;-62
2022/07/29 06:49:16;;;;;;;1.00;0.95;;;21.10;62.80;;;;;;6241688;22;43797;-62
2022/07/29 06:51:44;;;;;;;0.80;0.80;;;21.10;62.90;;;;;;6242584;22;43920;-62
2022/07/29 06:54:11;;;;;;;1.70;0.90;;;21.10;62.80;;;;;;6241681;22;43415;-61
2022/07/29 06:56:41;;;;;;;1.30;0.85;;;21.10;62.90;;;;;;6242804;22;43360;-61
2022/07/29 06:59:10;;;;;;;2.20;1.15;;;21.10;62.90;;;;;;6242471;22;43832;-62
2022/07/29 07:01:43;;;;;;;1.73;0.93;;;21.10;62.90;;;;;;6241500;22;43828;-61
2022/07/29 07:04:11;;;;;;;2.10;1.17;;;21.10;62.80;;;;;;6242837;22;43415;-61
2022/07/29 07:06:39;;;;;;;2.33;1.20;;;21.10;62.90;;;;;;6242317;22;43549;-61
2022/07/29 07:09:07;;;;;;;2.97;1.60;;;21.10;62.80;;;;;;6241867;22;44026;-62
2022/07/29 07:11:35;;;;;;;2.42;1.92;;;21.10;62.80;;;;;;6242161;22;43732;-61
2022/07/29 07:14:02;;;;;;;1.50;1.30;;;21.10;62.90;;;;;;6242260;22;43380;-62
2022/07/29 07:16:31;;;;;;;1.83;1.42;;;21.10;62.90;;;;;;6215229;22;43551;-62
2022/07/29 07:18:59;;;;;;;2.55;1.50;;;21.10;62.90;;;;;;6242799;22;43751;-62
2022/07/29 07:21:27;;;;;;;2.97;1.20;;;21.10;62.80;;;;;;6241360;22;44093;-62
2022/07/29 07:23:57;;;;;;;2.88;1.60;;;21.10;62.80;;;;;;6243140;22;43447;-61
2022/07/29 07:26:26;;;;;;;3.30;1.50;;;21.10;62.80;;;;;;6242472;22;43506;-62
2022/07/29 07:28:53;;;;;;;2.38;1.90;;;21.10;62.80;;;;;;6242195;22;44001;-62
2022/07/29 07:31:21;;;;;;;3.15;1.80;;;21.20;62.80;;;;;;6241914;22;44056;-62
2022/07/29 07:33:48;;;;;;;2.45;1.45;;;21.10;62.80;;;;;;6242557;22;43417;-62
2022/07/29 07:36:16;;;;;;;2.72;1.70;;;21.20;62.90;;;;;;6241747;22;43523;-62
2022/07/29 07:38:43;;;;;;;3.53;1.83;;;21.20;62.80;;;;;;6242099;22;44983;-62
2022/07/29 07:41:11;;;;;;;4.53;2.28;;;21.20;62.90;;;;;;6242023;22;43432;-62
2022/07/29 07:43:38;;;;;;;3.75;1.80;;;21.20;62.90;;;;;;6241787;22;43433;-61
2022/07/29 07:46:06;;;;;;;4.05;2.20;;;21.20;63.00;;;;;;6242160;22;43432;-62
2022/07/29 07:48:35;;;;;;;3.35;2.03;;;21.20;63.10;;;;;;6242083;22;44812;-62
2022/07/29 07:51:03;;;;;;;4.38;2.40;;;21.20;63.00;;;;;;6241025;22;43468;-62
2022/07/29 07:53:31;;;;;;;5.75;3.08;;;21.20;63.20;;;;;;6242118;22;43531;-62
2022/07/29 07:55:59;;;;;;;4.50;2.42;;;21.20;63.30;;;;;;6241890;22;43594;-62
2022/07/29 07:58:41;;;;;;;6.22;2.60;;;21.20;63.30;;;;;;6242374;22;43954;-62
2022/07/29 08:01:09;;;;;;;4.50;2.97;;;21.20;63.20;;;;;;6242250;22;43741;-62
2022/07/29 08:03:38;;;;;;;5.65;3.20;;;21.20;63.20;;;;;;6242957;22;43351;-62
2022/07/29 08:06:06;;;;;;;8.15;3.50;;;21.20;63.20;;;;;;6243414;22;43403;-62
2022/07/29 08:08:34;;;;;;;7.18;3.55;;;21.20;63.30;;;;;;6243168;22;44738;-62
2022/07/29 08:11:03;;;;;;;7.40;3.80;;;21.20;63.20;;;;;;6242741;22;43644;-62
2022/07/29 08:13:37;;;;;;;5.55;2.80;;;21.20;63.20;;;;;;6243514;22;43381;-62
2022/07/29 08:16:12;;;;;;;6.97;3.15;;;21.30;63.20;;;;;;6243385;22;43574;-62
2022/07/29 08:18:41;;;;;;;7.25;3.40;;;21.20;63.20;;;;;;6242396;22;44699;-62
2022/07/29 08:21:09;;;;;;;7.18;3.63;;;21.30;63.20;;;;;;6243095;22;43645;-62
2022/07/29 08:23:39;;;;;;;8.00;3.45;;;21.30;63.20;;;;;;6243736;22;43365;-62
2022/07/29 08:26:15;;;;;;;6.40;3.55;;;21.30;63.10;;;;;;6217894;22;43490;-62
2022/07/29 08:28:45;;;;;;;6.13;3.60;;;21.30;63.20;;;;;;6243273;22;44948;-62
2022/07/29 08:31:13;;;;;;;6.85;3.83;;;21.30;63.10;;;;;;6242374;22;43520;-62
2022/07/29 08:33:41;;;;;;;7.40;4.05;;;21.30;63.10;;;;;;6243054;22;43423;-62
2022/07/29 08:36:09;;;;;;;6.03;3.63;;;21.30;63.10;;;;;;6243370;22;43542;-62
2022/07/29 08:38:37;;;;;;;7.35;3.72;;;21.30;63.10;;;;;;6242036;22;43814;-61
2022/07/29 08:41:05;;;;;;;8.35;4.43;;;21.30;63.00;;;;;;6243199;22;43888;-62
2022/07/29 08:43:34;;;;;;;8.13;4.00;;;21.30;63.10;;;;;;6243397;22;43378;-62
2022/07/29 08:46:02;;;;;;;7.18;3.88;;;21.30;63.10;;;;;;6242959;22;43443;-62
2022/07/29 08:48:30;;;;;;;9.68;4.50;;;21.30;63.10;;;;;;6243024;22;43759;-62
2022/07/29 08:50:59;;;;;;;8.27;4.25;;;21.30;63.00;;;;;;6243408;22;43468;-62
2022/07/29 08:53:28;;;;;;;7.15;3.88;;;21.30;63.20;;;;;;6242391;22;43412;-62
2022/07/29 08:55:56;;;;;;;5.63;3.45;;;21.30;63.10;;;;;;6243371;22;43453;-62
2022/07/29 08:58:25;;;;;;;8.63;4.38;;;21.30;63.00;;;;;;6243119;22;44646;-62
2022/07/29 09:00:54;;;;;;;8.40;4.05;;;21.30;63.00;;;;;;6242601;22;43377;-62
2022/07/29 09:03:29;;;;;;;8.93;3.80;;;21.30;63.00;;;;;;6243354;22;43401;-62
2022/07/29 09:05:59;;;;;;;7.13;3.50;;;21.30;63.00;;;;;;6243778;22;43471;-62
2022/07/29 09:08:27;;;;;;;7.00;3.58;;;21.30;63.00;;;;;;6241848;22;44974;-61
2022/07/29 09:10:58;;;;;;;7.10;4.05;;;21.30;63.00;;;;;;6243225;22;43512;-61
2022/07/29 09:13:26;;;;;;;6.85;3.80;;;21.40;63.00;;;;;;6242066;22;43345;-62
2022/07/29 09:15:53;;;;;;;5.60;3.55;;;21.30;63.00;;;;;;6243769;22;43583;-62
2022/07/29 09:18:36;;;;;;;7.35;3.65;;;21.40;63.00;;;;;;6243038;22;43929;-62
2022/07/29 09:24:12;;;;;;;9.25;5.28;;;21.40;63.10;;;;;;6243385;22;43367;-62
2022/07/29 09:26:42;;;;;;;7.53;4.50;;;21.40;63.30;;;;;;6243150;22;43562;-62
2022/07/29 09:29:16;;;;;;;8.98;4.80;;;21.40;63.20;;;;;;6242219;22;44000;-61
2022/07/29 09:31:46;;;;;;;8.82;5.35;;;21.40;63.20;;;;;;6242587;22;43396;-62
2022/07/29 09:34:16;;;;;;;7.50;5.00;;;21.40;63.20;;;;;;6243476;22;43427;-62
2022/07/29 09:36:46;;;;;;;9.30;5.40;;;21.40;63.20;;;;;;6241917;22;43519;-62
2022/07/29 09:39:15;;;;;;;8.25;4.75;;;21.40;63.30;;;;;;6243180;22;44287;-61
2022/07/29 09:41:46;;;;;;;7.30;4.40;;;21.40;63.10;;;;;;6241844;22;43399;-61
2022/07/29 09:44:14;;;;;;;8.32;4.53;;;21.40;63.20;;;;;;6243076;22;43441;-62
2022/07/29 09:47:05;;;;;;;7.60;4.40;;;21.40;63.00;;;;;;6242850;22;43497;-62
2022/07/29 09:49:54;;;;;;;7.38;4.68;;;21.40;63.00;;;;;;6242354;22;43708;-62
2022/07/29 09:52:21;;;;;;;8.80;5.43;;;21.40;63.00;;;;;;6242445;22;43829;-61
2022/07/29 09:54:50;;;;;;;6.85;4.60;;;21.50;63.20;;;;;;6242695;22;43896;-61
2022/07/29 09:57:26;;;;;;;10.77;5.50;;;21.50;63.20;;;;;;6242412;22;43387;-62
2022/07/29 10:00:08;;;;;;;7.63;5.03;;;21.40;63.10;;;;;;6243310;22;44956;-62
2022/07/29 10:02:41;;;;;;;8.35;5.00;;;21.50;63.10;;;;;;6214350;22;45181;-62
2022/07/29 10:05:23;;;;;;;9.38;5.32;;;21.50;63.20;;;;;;6242712;22;43397;-62
2022/07/29 10:07:58;;;;;;;8.10;5.13;;;21.50;63.20;;;;;;6243462;22;43522;-62
2022/07/29 10:10:28;;;;;;;8.45;5.45;;;21.50;63.20;;;;;;6241900;22;44818;-63
2022/07/29 10:13:00;;;;;;;8.43;5.10;;;21.50;63.20;;;;;;6243029;22;43435;-62
2022/07/29 10:15:40;;;;;;;8.15;5.00;;;21.50;63.30;;;;;;6243136;22;43328;-62
2022/07/29 10:18:09;;;;;;;8.23;5.28;;;21.50;63.20;;;;;;6242482;22;43541;-62
2022/07/29 10:20:38;;;;;;;7.93;4.80;;;21.50;63.20;;;;;;6242271;22;43776;-62
2022/07/29 10:23:06;;;;;;;9.30;5.47;;;21.50;63.10;;;;;;6242736;22;43364;-62
2022/07/29 10:25:33;;;;;;;9.35;5.30;;;21.50;63.20;;;;;;6241348;22;43395;-62
2022/07/29 10:28:01;;;;;;;7.90;5.07;;;21.50;63.10;;;;;;6243351;22;43407;-62
2022/07/29 10:30:28;;;;;;;6.25;4.47;;;21.50;63.00;;;;;;6214877;22;45073;-61
2022/07/29 10:33:29;;;;;;;6.70;4.75;;;21.50;63.00;;;;;;6238701;22;43927;-62
2022/07/29 10:36:23;;;;;;;7.68;4.50;;;21.50;63.20;;;;;;6243313;22;43468;-62
2022/07/29 10:38:53;;;;;;;8.50;4.68;;;21.50;63.20;;;;;;6231746;22;43499;-62
2022/07/29 10:41:34;;;;;;;7.05;4.50;;;21.50;63.20;;;;;;6242836;22;45188;-62
2022/07/29 10:44:22;;;;;;;8.75;4.70;;;21.60;63.20;;;;;;6242649;22;43438;-62
2022/07/29 10:46:51;;;;;;;6.78;4.25;;;21.60;63.20;;;;;;6242322;22;43406;-62
2022/07/29 10:49:26;;;;;;;5.88;4.25;;;21.50;63.10;;;;;;6242824;22;43545;-58
2022/07/29 10:52:11;;;;;;;8.50;4.45;;;21.50;63.10;;;;;;6214495;22;47589;-62
2022/07/29 10:54:48;;;;;;;6.43;3.95;;;21.50;63.10;;;;;;6242517;22;43446;-63
2022/07/29 10:57:26;;;;;;;6.35;4.50;;;21.60;63.10;;;;;;6243213;22;43348;-63
2022/07/29 11:00:14;;;;;;;8.23;4.68;;;21.60;63.10;;;;;;6242184;22;43367;-63
2022/07/29 11:02:47;;;;;;;7.90;4.30;;;21.60;63.10;;;;;;6241744;22;44048;-62
2022/07/29 11:05:19;;;;;;;6.40;4.22;;;21.60;63.10;;;;;;6242325;22;43426;-62
2022/07/29 11:08:25;;;;;;;5.95;3.72;;;21.60;63.00;;;;;;6242560;22;43333;-62
2022/07/29 11:11:27;;;;;;;4.55;3.55;;;21.60;63.10;;;;;;6149017;23;43431;-63
2022/07/29 11:13:56;;;;;;;5.90;3.42;;;21.60;63.10;;;;;;6242379;22;43844;-63
2022/07/29 11:16:23;;;;;;;5.30;3.42;;;21.60;63.10;;;;;;6242498;22;43924;-62
2022/07/29 11:19:10;;;;;;;5.05;3.40;;;21.60;63.10;;;;;;6242775;22;43468;-63
2022/07/29 11:21:42;;;;;;;5.13;3.70;;;21.60;63.00;;;;;;6241891;22;43414;-63
2022/07/29 11:24:30;;;;;;;4.25;3.22;;;21.60;63.00;;;;;;6242224;22;44640;-63
2022/07/29 11:27:13;;;;;;;6.07;3.50;;;21.60;63.00;;;;;;6242057;22;43384;-62
2022/07/29 11:29:52;;;;;;;4.53;3.03;;;21.60;63.00;;;;;;6242804;22;43352;-63
2022/07/29 11:32:20;;;;;;;5.70;3.33;;;21.60;63.00;;;;;;6242157;22;44144;-62
2022/07/29 11:35:14;;;;;;;5.53;3.50;;;21.60;63.00;;;;;;6241527;22;43775;-63
2022/07/29 11:38:22;;;;;;;3.88;2.90;;;21.60;63.00;;;;;;6244344;22;43886;-63
2022/07/29 11:41:15;;;;;;;5.68;3.33;;;21.60;63.00;;;;;;6244760;22;43426;-63
2022/07/29 11:43:51;;;;;;;4.30;3.20;;;21.60;63.00;;;;;;6243967;22;43399;-63
2022/07/29 11:46:47;;;;;;;4.28;2.80;;;21.60;63.00;;;;;;6244102;22;43792;-63
2022/07/29 11:49:27;;;;;;;6.60;3.42;;;21.60;63.00;;;;;;6243000;22;43379;-62
2022/07/29 11:52:00;;;;;;;3.92;2.70;;;21.60;63.00;;;;;;6244019;22;43375;-62
2022/07/29 11:54:34;;;;;;;;;;;21.60;63.00;;;;;;6244044;22;43487;-62
2022/07/29 11:57:21;;;;;;;;;;;21.60;63.00;;;;;;6243773;22;44661;-62
2022/07/29 11:59:58;;;;;;;4.53;2.80;;;21.60;63.10;;;;;;6219051;22;43419;-63
2022/07/29 12:02:43;;;;;;;4.45;2.85;;;21.60;63.10;;;;;;6242830;22;43328;-64
2022/07/29 12:05:15;;;;;;;4.10;3.00;;;21.60;63.10;;;;;;6243596;22;43459;-63
2022/07/29 12:08:21;;;;;;;4.80;2.90;;;21.60;63.10;;;;;;6243609;22;43761;-63
2022/07/29 12:10:51;;;;;;;3.22;2.70;;;21.60;63.00;;;;;;6242640;22;43375;-63
2022/07/29 12:13:20;;;;;;;4.88;2.70;;;21.70;63.00;;;;;;6243545;22;43367;-63
2022/07/29 12:15:56;;;;;;;3.85;2.80;;;21.70;63.00;;;;;;6243607;22;43426;-62
2022/07/29 12:18:26;;;;;;;3.63;2.72;;;21.70;63.00;;;;;;6242799;22;43861;-63
2022/07/29 12:20:59;;;;;;;4.43;2.72;;;21.70;62.90;;;;;;6243331;22;43670;-63
2022/07/29 12:23:32;;;;;;;5.03;3.00;;;21.70;63.00;;;;;;6242796;22;43994;-62
2022/07/29 12:26:05;;;;;;;2.95;2.50;;;21.70;62.90;;;;;;6243994;22;43394;-63
2022/07/29 12:28:38;;;;;;;4.22;2.42;;;21.70;62.90;;;;;;6243287;22;45083;-63
2022/07/29 12:31:15;;;;;;;3.80;2.40;;;21.70;62.90;;;;;;6242155;22;43951;-63
2022/07/29 12:34:03;;;;;;;4.00;2.83;;;21.70;62.90;;;;;;6243310;22;43439;-63
2022/07/29 12:36:31;;;;;;;4.15;2.28;;;21.70;62.90;;;;;;6243715;22;43576;-63
2022/07/29 12:38:58;;;;;;;3.58;2.20;;;21.70;62.80;;;;;;6242851;22;43860;-63
2022/07/29 12:41:28;;;;;;;2.85;2.30;;;21.80;62.90;;;;;;6243287;22;43926;-63
2022/07/29 12:43:56;;;;;;;4.57;2.40;;;21.80;62.80;;;;;;6243964;22;43368;-63
2022/07/29 12:46:23;;;;;;;4.40;2.47;;;21.80;62.80;;;;;;6242715;22;43408;-63
2022/07/29 12:48:56;;;;;;;2.20;2.00;;;21.80;62.80;;;;;;6242709;22;43794;-63
2022/07/29 12:51:38;;;;;;;3.38;2.30;;;21.80;62.80;;;;;;6242485;22;43406;-63
2022/07/29 12:54:08;;;;;;;3.85;2.28;;;21.80;62.70;;;;;;6216023;22;43444;-63
2022/07/29 12:56:36;;;;;;;4.07;2.63;;;21.80;62.80;;;;;;6243108;22;43562;-63
2022/07/29 12:59:19;;;;;;;4.20;2.30;;;21.80;62.70;;;;;;6242757;22;43749;-63
2022/07/29 13:01:48;;;;;;;3.03;2.05;;;21.80;62.70;;;;;;6243215;22;43519;-63
2022/07/29 13:04:27;;;;;;;3.90;2.38;;;21.90;62.80;;;;;;6242759;22;43442;-63
2022/07/29 13:07:07;;;;;;;3.08;2.45;;;21.80;62.60;;;;;;6243219;22;43414;-63
2022/07/29 13:10:09;;;;;;;2.25;2.05;;;21.90;62.70;;;;;;6243459;22;44673;-63
2022/07/29 13:12:37;;;;;;;2.15;1.95;;;21.90;62.70;;;;;;6242405;22;43380;-62
2022/07/29 13:15:17;;;;;;;4.13;2.20;;;21.90;62.70;;;;;;6243024;22;44052;-62
2022/07/29 13:17:44;;;;;;;4.72;1.90;;;21.90;62.60;;;;;;6243667;22;43372;-62
2022/07/29 13:20:14;;;;;;;2.53;1.90;;;21.90;62.60;;;;;;6241998;22;43792;-62